sensor_id;sensor_type;location;lat;lon;timestamp;pressure;altitude;pressure_sealevel;temperature;humidity
48882;BME280;57063;51.406;-2.402;2023-04-02T14:52:43;101746.22;;;10.01;68.87
48882;BME280;57063;51.406;-2.402;2023-04-02T14:55:26;101733.16;;;10.31;68.69
48882;BME280;57063;51.406;-2.402;2023-04-02T14:57:57;101732.94;;;10.12;67.56
48882;BME280;57063;51.406;-2.402;2023-04-02T15:00:40;101728.56;;;10.14;69.34
48882;BME280;57063;51.406;-2.402;2023-04-02T15:03:17;101726.81;;;10.14;67.02
48882;BME280;57063;51.406;-2.402;2023-04-02T15:08:29;101747.34;;;10.44;65.13
48882;BME280;57063;51.406;-2.402;2023-04-02T15:11:19;101753.81;;;10.31;62.32
48882;BME280;57063;51.406;-2.402;2023-04-02T15:14:15;101739.72;;;10.14;62.90
48882;BME280;57063;51.406;-2.402;2023-04-02T15:16:43;101743.00;;;10.19;61.78
48882;BME280;57063;51.406;-2.402;2023-04-02T15:19:14;101736.72;;;10.01;65.50
48882;BME280;57063;51.406;-2.402;2023-04-02T15:21:50;101755.44;;;10.08;64.27
48882;BME280;57063;51.406;-2.402;2023-04-02T15:24:19;101748.47;;;10.10;64.73
48882;BME280;57063;51.406;-2.402;2023-04-02T15:29:48;101749.63;;;10.01;66.94
48882;BME280;57063;51.406;-2.402;2023-04-02T15:40:42;101742.41;;;9.86;64.31
48882;BME280;57063;51.406;-2.402;2023-04-02T15:46:20;101737.94;;;9.66;63.60
48882;BME280;57063;51.406;-2.402;2023-04-02T15:51:45;101753.47;;;9.63;66.70
48882;BME280;57063;51.406;-2.402;2023-04-02T16:10:42;101750.19;;;9.31;68.96
48882;BME280;57063;51.406;-2.402;2023-04-02T16:16:14;101749.53;;;9.25;67.76
48882;BME280;57063;51.406;-2.402;2023-04-02T16:21:46;101764.25;;;9.21;64.53
48882;BME280;57063;51.406;-2.402;2023-04-02T16:24:13;101746.41;;;9.15;63.32
48882;BME280;57063;51.406;-2.402;2023-04-02T16:38:29;101766.81;;;9.21;66.14
48882;BME280;57063;51.406;-2.402;2023-04-02T16:50:51;101778.75;;;8.95;66.30
48882;BME280;57063;51.406;-2.402;2023-04-02T16:53:47;101765.44;;;9.09;68.72
48882;BME280;57063;51.406;-2.402;2023-04-02T16:59:54;101776.28;;;9.20;69.58
48882;BME280;57063;51.406;-2.402;2023-04-02T17:05:30;101786.28;;;9.02;68.91
48882;BME280;57063;51.406;-2.402;2023-04-02T17:11:05;101798.56;;;8.62;71.92
48882;BME280;57063;51.406;-2.402;2023-04-02T17:13:41;101793.00;;;8.46;74.67
48882;BME280;57063;51.406;-2.402;2023-04-02T17:18:36;101788.38;;;8.25;76.00
48882;BME280;57063;51.406;-2.402;2023-04-02T17:21:13;101783.56;;;8.12;75.93
48882;BME280;57063;51.406;-2.402;2023-04-02T17:23:59;101801.59;;;8.11;76.74
48882;BME280;57063;51.406;-2.402;2023-04-02T17:26:29;101795.75;;;8.04;76.90
48882;BME280;57063;51.406;-2.402;2023-04-02T17:29:05;101790.59;;;8.04;76.31
48882;BME280;57063;51.406;-2.402;2023-04-02T17:31:59;101791.31;;;8.09;75.12
48882;BME280;57063;51.406;-2.402;2023-04-02T17:34:27;101803.44;;;8.06;73.01
48882;BME280;57063;51.406;-2.402;2023-04-02T17:37:37;101807.75;;;8.05;74.24
48882;BME280;57063;51.406;-2.402;2023-04-02T17:48:34;101807.16;;;7.94;73.60
48882;BME280;57063;51.406;-2.402;2023-04-02T17:59:12;101817.91;;;7.74;76.42
48882;BME280;57063;51.406;-2.402;2023-04-02T18:04:59;101829.69;;;7.45;79.85
48882;BME280;57063;51.406;-2.402;2023-04-02T18:13:14;101830.63;;;7.02;83.78
48882;BME280;57063;51.406;-2.402;2023-04-02T18:21:43;101841.88;;;6.50;88.92
48882;BME280;57063;51.406;-2.402;2023-04-02T18:30:12;101846.91;;;6.05;92.17
48882;BME280;57063;51.406;-2.402;2023-04-02T18:33:01;101839.41;;;5.91;93.32
48882;BME280;57063;51.406;-2.402;2023-04-02T18:46:53;101862.31;;;5.40;99.13
48882;BME280;57063;51.406;-2.402;2023-04-02T18:49:37;101863.28;;;5.31;100.00
48882;BME280;57063;51.406;-2.402;2023-04-02T18:52:13;101853.19;;;5.22;100.00
48882;BME280;57063;51.406;-2.402;2023-04-02T18:54:51;101860.75;;;5.30;100.00
48882;BME280;57063;51.406;-2.402;2023-04-02T18:57:23;101857.38;;;5.26;100.00
48882;BME280;57063;51.406;-2.402;2023-04-02T18:59:57;101856.56;;;5.24;100.00
48882;BME280;57063;51.406;-2.402;2023-04-02T19:05:30;101871.84;;;5.32;100.00
48882;BME280;57063;51.406;-2.402;2023-04-02T19:08:03;101850.56;;;5.25;100.00
48882;BME280;57063;51.406;-2.402;2023-04-02T19:10:54;101862.44;;;5.31;100.00
48882;BME280;57063;51.406;-2.402;2023-04-02T19:13:18;101877.63;;;5.43;100.00
48882;BME280;57063;51.406;-2.402;2023-04-02T19:21:29;101880.97;;;5.50;100.00
48882;BME280;57063;51.406;-2.402;2023-04-02T19:24:14;101865.72;;;5.42;100.00
48882;BME280;57063;51.406;-2.402;2023-04-02T19:35:33;101881.03;;;5.45;99.50
48882;BME280;57063;51.406;-2.402;2023-04-02T19:44:21;101900.75;;;5.39;98.62
48882;BME280;57063;51.406;-2.402;2023-04-02T19:46:46;101911.03;;;5.37;98.63
48882;BME280;57063;51.406;-2.402;2023-04-02T19:49:13;101913.59;;;5.34;99.25
48882;BME280;57063;51.406;-2.402;2023-04-02T19:51:41;101910.22;;;5.32;96.21
48882;BME280;57063;51.406;-2.402;2023-04-02T19:54:07;101915.19;;;5.44;95.36
48882;BME280;57063;51.406;-2.402;2023-04-02T19:56:33;101915.09;;;5.50;91.92
48882;BME280;57063;51.406;-2.402;2023-04-02T19:58:58;101918.44;;;5.58;88.83
48882;BME280;57063;51.406;-2.402;2023-04-02T20:01:24;101925.19;;;5.63;87.31
48882;BME280;57063;51.406;-2.402;2023-04-02T20:03:50;101924.97;;;5.81;85.82
48882;BME280;57063;51.406;-2.402;2023-04-02T20:06:17;101930.88;;;5.86;85.07
48882;BME280;57063;51.406;-2.402;2023-04-02T20:08:44;101929.72;;;6.09;80.55
48882;BME280;57063;51.406;-2.402;2023-04-02T20:11:09;101928.94;;;6.02;80.14
48882;BME280;57063;51.406;-2.402;2023-04-02T20:13:35;101926.44;;;6.00;79.71
48882;BME280;57063;51.406;-2.402;2023-04-02T20:16:02;101927.25;;;6.03;78.83
48882;BME280;57063;51.406;-2.402;2023-04-02T20:18:29;101941.81;;;5.99;80.33
48882;BME280;57063;51.406;-2.402;2023-04-02T20:20:55;101932.69;;;5.78;81.81
48882;BME280;57063;51.406;-2.402;2023-04-02T20:23:21;101945.66;;;5.66;83.52
48882;BME280;57063;51.406;-2.402;2023-04-02T20:25:48;101948.31;;;5.58;81.79
48882;BME280;57063;51.406;-2.402;2023-04-02T20:28:18;101957.56;;;5.70;81.35
48882;BME280;57063;51.406;-2.402;2023-04-02T20:30:43;101947.56;;;5.48;83.27
48882;BME280;57063;51.406;-2.402;2023-04-02T20:33:09;101944.31;;;5.35;85.45
48882;BME280;57063;51.406;-2.402;2023-04-02T20:35:34;101950.41;;;5.24;87.00
48882;BME280;57063;51.406;-2.402;2023-04-02T20:38:02;101944.22;;;5.43;83.65
48882;BME280;57063;51.406;-2.402;2023-04-02T20:40:31;101952.84;;;5.36;83.02
48882;BME280;57063;51.406;-2.402;2023-04-02T20:42:56;101941.09;;;5.17;83.27
48882;BME280;57063;51.406;-2.402;2023-04-02T20:45:22;101951.25;;;5.26;82.22
48882;BME280;57063;51.406;-2.402;2023-04-02T20:47:48;101952.25;;;5.09;82.28
48882;BME280;57063;51.406;-2.402;2023-04-02T20:50:14;101949.66;;;5.14;81.44
48882;BME280;57063;51.406;-2.402;2023-04-02T20:52:39;101961.38;;;5.35;80.54
48882;BME280;57063;51.406;-2.402;2023-04-02T20:55:06;101946.97;;;5.29;80.52
48882;BME280;57063;51.406;-2.402;2023-04-02T20:57:31;101938.66;;;5.06;81.16
48882;BME280;57063;51.406;-2.402;2023-04-02T20:59:57;101951.47;;;5.07;81.36
48882;BME280;57063;51.406;-2.402;2023-04-02T21:02:23;101952.97;;;5.24;80.08
48882;BME280;57063;51.406;-2.402;2023-04-02T21:04:49;101951.25;;;5.26;79.11
48882;BME280;57063;51.406;-2.402;2023-04-02T21:07:14;101954.88;;;5.06;81.63
48882;BME280;57063;51.406;-2.402;2023-04-02T21:09:40;101952.19;;;5.19;79.51
48882;BME280;57063;51.406;-2.402;2023-04-02T21:12:05;101961.78;;;4.98;80.90
48882;BME280;57063;51.406;-2.402;2023-04-02T21:14:31;101962.78;;;4.82;83.13
48882;BME280;57063;51.406;-2.402;2023-04-02T21:17:01;101971.28;;;4.82;82.88
48882;BME280;57063;51.406;-2.402;2023-04-02T21:19:27;101970.53;;;4.76;83.40
48882;BME280;57063;51.406;-2.402;2023-04-02T21:21:53;101980.75;;;4.72;83.81
48882;BME280;57063;51.406;-2.402;2023-04-02T21:24:19;101968.09;;;4.59;84.42
48882;BME280;57063;51.406;-2.402;2023-04-02T21:26:45;101987.53;;;4.80;82.78
48882;BME280;57063;51.406;-2.402;2023-04-02T21:29:11;101982.53;;;4.64;84.18
48882;BME280;57063;51.406;-2.402;2023-04-02T21:31:40;101975.75;;;4.60;82.40
48882;BME280;57063;51.406;-2.402;2023-04-02T21:34:07;101975.81;;;4.54;82.64
48882;BME280;57063;51.406;-2.402;2023-04-02T21:36:36;101974.03;;;4.64;82.31
48882;BME280;57063;51.406;-2.402;2023-04-02T21:39:09;101979.13;;;4.61;82.35
48882;BME280;57063;51.406;-2.402;2023-04-02T21:41:38;101968.13;;;4.54;82.02
48882;BME280;57063;51.406;-2.402;2023-04-02T21:44:05;101993.72;;;4.49;83.20
48882;BME280;57063;51.406;-2.402;2023-04-02T21:46:34;101986.03;;;4.51;82.89
48882;BME280;57063;51.406;-2.402;2023-04-02T21:49:00;101994.47;;;4.64;81.98
48882;BME280;57063;51.406;-2.402;2023-04-02T21:51:30;101991.13;;;4.57;82.44
48882;BME280;57063;51.406;-2.402;2023-04-02T21:53:57;101985.19;;;4.54;81.74
48882;BME280;57063;51.406;-2.402;2023-04-02T21:56:36;101986.06;;;4.49;82.98
48882;BME280;57063;51.406;-2.402;2023-04-02T21:59:03;101982.63;;;4.52;83.31
48882;BME280;57063;51.406;-2.402;2023-04-02T22:01:33;101993.66;;;4.60;81.56
48882;BME280;57063;51.406;-2.402;2023-04-02T22:04:01;101980.06;;;4.50;82.68
48882;BME280;57063;51.406;-2.402;2023-04-02T22:06:28;101975.78;;;4.59;81.95
48882;BME280;57063;51.406;-2.402;2023-04-02T22:08:56;101982.66;;;4.46;82.98
48882;BME280;57063;51.406;-2.402;2023-04-02T22:11:26;101980.19;;;4.37;84.10
48882;BME280;57063;51.406;-2.402;2023-04-02T22:13:52;101986.94;;;4.47;83.29
48882;BME280;57063;51.406;-2.402;2023-04-02T22:16:22;101988.75;;;4.34;83.93
48882;BME280;57063;51.406;-2.402;2023-04-02T22:18:49;101965.66;;;4.39;83.09
48882;BME280;57063;51.406;-2.402;2023-04-02T22:21:16;101977.69;;;4.27;83.72
48882;BME280;57063;51.406;-2.402;2023-04-02T22:23:43;101977.66;;;4.31;83.72
48882;BME280;57063;51.406;-2.402;2023-04-02T22:26:09;101979.34;;;4.35;83.66
48882;BME280;57063;51.406;-2.402;2023-04-02T22:28:35;101982.84;;;4.24;84.60
48882;BME280;57063;51.406;-2.402;2023-04-02T22:31:19;101978.56;;;4.23;84.84
48882;BME280;57063;51.406;-2.402;2023-04-02T22:33:45;101984.50;;;4.28;83.93
48882;BME280;57063;51.406;-2.402;2023-04-02T22:36:12;101982.88;;;4.14;84.80
48882;BME280;57063;51.406;-2.402;2023-04-02T22:38:38;101981.19;;;4.11;84.84
48882;BME280;57063;51.406;-2.402;2023-04-02T22:41:08;101989.69;;;4.13;85.46
48882;BME280;57063;51.406;-2.402;2023-04-02T22:43:35;101975.34;;;3.92;86.14
48882;BME280;57063;51.406;-2.402;2023-04-02T22:46:03;101993.13;;;4.12;85.18
48882;BME280;57063;51.406;-2.402;2023-04-02T22:48:29;101993.13;;;4.12;85.62
48882;BME280;57063;51.406;-2.402;2023-04-02T22:50:55;101975.34;;;3.95;86.10
48882;BME280;57063;51.406;-2.402;2023-04-02T22:53:20;101982.94;;;4.06;84.92
48882;BME280;57063;51.406;-2.402;2023-04-02T22:55:46;101969.34;;;3.99;85.49
48882;BME280;57063;51.406;-2.402;2023-04-02T22:58:11;101973.72;;;3.80;86.41
48882;BME280;57063;51.406;-2.402;2023-04-02T23:00:37;101969.47;;;3.70;87.00
48882;BME280;57063;51.406;-2.402;2023-04-02T23:03:04;101966.06;;;3.68;87.31
48882;BME280;57063;51.406;-2.402;2023-04-02T23:05:30;101969.44;;;3.85;86.28
48882;BME280;57063;51.406;-2.402;2023-04-02T23:07:55;101962.69;;;3.71;86.43
48882;BME280;57063;51.406;-2.402;2023-04-02T23:10:21;101977.09;;;3.79;86.89
48882;BME280;57063;51.406;-2.402;2023-04-02T23:12:46;101976.28;;;3.74;87.19
48882;BME280;57063;51.406;-2.402;2023-04-02T23:15:11;101963.53;;;3.65;87.63
48882;BME280;57063;51.406;-2.402;2023-04-02T23:17:37;101974.66;;;3.61;88.66
48882;BME280;57063;51.406;-2.402;2023-04-02T23:20:04;101976.34;;;3.59;89.18
48882;BME280;57063;51.406;-2.402;2023-04-02T23:22:29;101978.81;;;3.73;87.66
48882;BME280;57063;51.406;-2.402;2023-04-02T23:24:55;101972.94;;;3.55;88.04
48882;BME280;57063;51.406;-2.402;2023-04-02T23:27:21;101959.34;;;3.52;88.31
48882;BME280;57063;51.406;-2.402;2023-04-02T23:29:47;101963.66;;;3.42;89.46
48882;BME280;57063;51.406;-2.402;2023-04-02T23:32:13;101967.03;;;3.38;89.97
48882;BME280;57063;51.406;-2.402;2023-04-02T23:34:38;101954.34;;;3.27;90.45
48882;BME280;57063;51.406;-2.402;2023-04-02T23:37:04;101959.34;;;3.52;88.80
48882;BME280;57063;51.406;-2.402;2023-04-02T23:39:29;101978.06;;;3.48;89.07
48882;BME280;57063;51.406;-2.402;2023-04-02T23:41:55;101964.50;;;3.39;89.61
48882;BME280;57063;51.406;-2.402;2023-04-02T23:44:23;101962.84;;;3.29;90.27
48882;BME280;57063;51.406;-2.402;2023-04-02T23:46:49;101965.28;;;3.51;89.08
48882;BME280;57063;51.406;-2.402;2023-04-02T23:49:14;101965.38;;;3.26;90.89
48882;BME280;57063;51.406;-2.402;2023-04-02T23:51:40;101966.16;;;3.43;89.77
48882;BME280;57063;51.406;-2.402;2023-04-02T23:54:05;101961.09;;;3.37;90.12
48882;BME280;57063;51.406;-2.402;2023-04-02T23:56:31;101953.47;;;3.33;90.74
48882;BME280;57063;51.406;-2.402;2023-04-02T23:58:57;101961.09;;;3.40;90.14
